createdAt,value
2022-11-23T00:00:45.176Z,6.50
2022-11-23T00:03:15.909Z,6.50
2022-11-23T00:05:43.521Z,6.50
2022-11-23T00:08:10.879Z,6.50
2022-11-23T00:10:38.252Z,6.50
2022-11-23T00:13:05.637Z,6.50
2022-11-23T00:15:32.983Z,6.60
2022-11-23T00:18:00.666Z,6.60
2022-11-23T00:25:01.249Z,6.50
2022-11-23T00:27:28.773Z,6.60
2022-11-23T00:29:56.179Z,6.50
2022-11-23T00:32:23.660Z,6.60
2022-11-23T00:34:51.059Z,6.50
2022-11-23T00:37:18.535Z,6.50
2022-11-23T00:39:45.864Z,6.60
2022-11-23T00:42:13.424Z,6.60
2022-11-23T00:44:40.837Z,6.60
2022-11-23T00:47:08.239Z,6.60
2022-11-23T00:49:35.588Z,6.60
2022-11-23T00:52:03.036Z,6.60
2022-11-23T00:54:30.472Z,6.60
2022-11-23T00:56:57.963Z,6.60
2022-11-23T00:59:25.348Z,6.70
2022-11-23T01:01:52.793Z,6.70
2022-11-23T01:04:20.275Z,6.70
2022-11-23T01:06:47.992Z,6.70
2022-11-23T01:09:18.711Z,6.70
2022-11-23T01:11:46.257Z,6.70
2022-11-23T01:14:13.639Z,6.70
2022-11-23T01:16:41.806Z,6.70
2022-11-23T01:19:12.456Z,6.60
2022-11-23T01:21:40.234Z,6.60
2022-11-23T01:24:10.367Z,6.60
2022-11-23T01:26:37.910Z,6.60
2022-11-23T01:29:05.465Z,6.70
2022-11-23T01:31:33.094Z,6.70
2022-11-23T01:34:02.080Z,6.60
2022-11-23T01:36:33.338Z,6.60
2022-11-23T01:39:01.521Z,6.70
2022-11-23T01:41:35.358Z,6.70
2022-11-23T01:44:23.213Z,6.70
2022-11-23T01:46:51.659Z,6.70
2022-11-23T01:49:20.406Z,6.70
2022-11-23T01:51:50.926Z,6.80
2022-11-23T01:54:39.683Z,6.80
2022-11-23T01:57:12.106Z,6.80
2022-11-23T01:59:40.018Z,6.90
2022-11-23T02:02:07.621Z,6.90
2022-11-23T02:04:39.289Z,6.90
2022-11-23T02:07:07.016Z,6.90
2022-11-23T02:09:35.961Z,6.90
2022-11-23T02:12:03.726Z,6.90
2022-11-23T02:14:31.199Z,6.80
2022-11-23T02:16:59.657Z,6.80
2022-11-23T02:19:41.393Z,6.90
2022-11-23T02:22:16.045Z,6.80
2022-11-23T02:24:49.896Z,6.90
2022-11-23T02:27:17.760Z,6.80
2022-11-23T02:29:46.431Z,6.70
2022-11-23T02:32:20.777Z,6.80
2022-11-23T02:34:48.135Z,6.70
2022-11-23T02:37:16.843Z,6.60
2022-11-23T02:39:50.338Z,6.60
2022-11-23T02:42:18.660Z,6.50
2022-11-23T02:44:49.011Z,6.50
2022-11-23T02:47:16.791Z,6.50
2022-11-23T02:49:47.208Z,6.50
2022-11-23T02:52:16.025Z,6.50
2022-11-23T02:54:43.516Z,6.50
2022-11-23T02:57:11.197Z,6.50
2022-11-23T02:59:38.519Z,6.50
2022-11-23T03:02:06.207Z,6.40
2022-11-23T03:04:33.880Z,6.40
2022-11-23T03:07:01.377Z,6.50
2022-11-23T03:09:29.739Z,6.40
2022-11-23T03:11:57.594Z,6.40
2022-11-23T03:14:25.833Z,6.40
2022-11-23T03:16:53.297Z,6.40
2022-11-23T03:19:20.677Z,6.40
2022-11-23T03:21:48.082Z,6.40
2022-11-23T03:24:16.310Z,6.30
2022-11-23T03:26:43.749Z,6.30
2022-11-23T03:29:11.139Z,6.30
2022-11-23T03:31:38.581Z,6.30
2022-11-23T03:34:06.053Z,6.30
2022-11-23T03:36:33.441Z,6.30
2022-11-23T03:39:00.844Z,6.30
2022-11-23T03:41:28.267Z,6.20
2022-11-23T03:43:55.683Z,6.20
2022-11-23T03:46:23.127Z,6.20
2022-11-23T03:48:50.497Z,6.20
2022-11-23T03:51:18.026Z,6.20
2022-11-23T03:53:45.464Z,6.20
2022-11-23T03:56:12.939Z,6.10
2022-11-23T03:58:40.599Z,6.10
2022-11-23T04:01:08.234Z,6.10
2022-11-23T04:03:35.717Z,6.10
2022-11-23T04:06:03.417Z,6.00
2022-11-23T04:08:31.092Z,6.00
2022-11-23T04:11:00.716Z,6.00
2022-11-23T04:13:29.874Z,5.90
2022-11-23T04:15:58.434Z,5.90
2022-11-23T04:18:26.301Z,5.90
2022-11-23T04:20:53.821Z,5.90
2022-11-23T04:23:21.215Z,5.90
2022-11-23T04:25:48.671Z,5.90
2022-11-23T04:28:16.189Z,6.00
2022-11-23T04:30:43.604Z,6.00
2022-11-23T04:33:11.003Z,6.00
2022-11-23T04:35:38.425Z,6.10
2022-11-23T04:38:05.865Z,6.10
2022-11-23T04:40:33.281Z,6.10
2022-11-23T04:43:02.196Z,6.10
2022-11-23T04:45:29.752Z,6.20
2022-11-23T04:47:57.119Z,6.30
2022-11-23T04:50:24.560Z,6.30
2022-11-23T04:52:51.939Z,6.50
2022-11-23T04:55:19.362Z,6.60
2022-11-23T04:57:46.698Z,6.80
2022-11-23T05:00:14.788Z,6.90
2022-11-23T05:02:42.169Z,7.00
2022-11-23T05:05:10.103Z,7.00
2022-11-23T05:07:37.638Z,7.10
2022-11-23T05:10:05.485Z,7.20
2022-11-23T05:12:32.895Z,7.20
2022-11-23T05:15:00.362Z,7.30
2022-11-23T05:17:27.836Z,7.30
2022-11-23T05:19:56.209Z,7.30
2022-11-23T05:22:23.580Z,7.40
2022-11-23T05:24:51.339Z,7.40
2022-11-23T05:27:18.861Z,7.30
2022-11-23T05:29:46.240Z,7.30
2022-11-23T05:32:15.023Z,7.30
2022-11-23T05:34:42.457Z,7.40
2022-11-23T05:37:09.943Z,7.30
2022-11-23T05:39:37.345Z,7.40
2022-11-23T05:42:04.978Z,7.40
2022-11-23T05:44:32.556Z,7.40
2022-11-23T05:47:00.156Z,7.40
2022-11-23T05:49:27.717Z,7.50
2022-11-23T05:51:55.165Z,7.50
2022-11-23T05:54:22.760Z,7.50
2022-11-23T05:56:50.209Z,7.40
2022-11-23T05:59:17.622Z,7.40
2022-11-23T06:01:45.036Z,7.40
2022-11-23T06:04:13.410Z,7.40
2022-11-23T06:06:40.903Z,7.40
2022-11-23T06:09:08.358Z,7.40
2022-11-23T06:11:36.064Z,7.40
2022-11-23T06:14:04.146Z,7.40
2022-11-23T06:16:32.312Z,7.50
2022-11-23T06:18:59.707Z,7.60
2022-11-23T06:21:27.129Z,7.60
2022-11-23T06:23:54.499Z,7.70
2022-11-23T06:26:22.021Z,7.70
2022-11-23T06:28:49.424Z,7.80
2022-11-23T06:31:16.830Z,7.80
2022-11-23T06:33:44.760Z,7.90
2022-11-23T06:36:12.640Z,8.00
2022-11-23T06:38:40.009Z,8.10
2022-11-23T06:41:07.475Z,8.10
2022-11-23T06:43:34.928Z,8.20
2022-11-23T06:46:06.958Z,8.20
2022-11-23T06:48:34.455Z,8.30
2022-11-23T06:51:02.066Z,8.30
2022-11-23T06:53:30.087Z,8.30
2022-11-23T06:56:00.807Z,8.40
2022-11-23T06:58:28.365Z,8.50
2022-11-23T07:01:00.947Z,8.50
2022-11-23T07:03:28.627Z,8.60
2022-11-23T07:05:56.572Z,8.70
2022-11-23T07:08:24.004Z,8.70
2022-11-23T07:10:51.374Z,8.80
2022-11-23T07:13:18.785Z,8.80
2022-11-23T07:15:46.151Z,8.80
2022-11-23T07:18:13.513Z,8.80
2022-11-23T07:20:40.883Z,8.90
2022-11-23T07:23:10.739Z,8.90
2022-11-23T07:25:38.742Z,9.00
2022-11-23T07:28:07.604Z,9.10
2022-11-23T07:30:35.868Z,9.10
2022-11-23T07:33:05.770Z,9.10
2022-11-23T07:35:33.200Z,9.10
2022-11-23T07:38:00.944Z,9.20
2022-11-23T07:40:29.485Z,9.10
2022-11-23T07:43:01.694Z,9.10
2022-11-23T07:45:29.955Z,9.10
2022-11-23T07:48:08.089Z,9.10
2022-11-23T07:50:36.864Z,9.10
2022-11-23T07:53:06.124Z,9.20
2022-11-23T07:55:33.963Z,9.20
2022-11-23T07:58:01.585Z,9.20
2022-11-23T08:00:30.199Z,9.20
2022-11-23T08:03:26.104Z,9.30
2022-11-23T08:05:47.312Z,9.30
2022-11-23T08:08:14.935Z,9.30
2022-11-23T08:10:47.145Z,9.30
2022-11-23T08:13:17.434Z,9.30
2022-11-23T08:15:48.769Z,9.30
2022-11-23T08:18:19.606Z,9.30
2022-11-23T08:20:47.016Z,9.30
2022-11-23T08:23:14.445Z,9.30
2022-11-23T08:25:41.953Z,9.40
2022-11-23T08:28:09.722Z,9.40
2022-11-23T08:30:37.619Z,9.40
2022-11-23T08:33:06.862Z,9.40
2022-11-23T08:35:41.387Z,9.50
2022-11-23T08:38:10.275Z,9.50
2022-11-23T08:40:38.583Z,9.60
2022-11-23T08:43:06.416Z,9.60
2022-11-23T08:45:33.927Z,9.70
2022-11-23T08:48:02.684Z,9.80
2022-11-23T08:50:30.732Z,9.90
2022-11-23T08:52:59.947Z,9.90
2022-11-23T08:55:28.979Z,9.90
2022-11-23T08:57:57.642Z,10.00
2022-11-23T09:00:26.255Z,10.00
2022-11-23T09:02:54.178Z,10.00
2022-11-23T09:05:21.827Z,10.00
2022-11-23T09:07:49.260Z,10.10
2022-11-23T09:10:19.048Z,10.10
2022-11-23T09:12:49.822Z,10.10
2022-11-23T09:15:17.557Z,10.10
2022-11-23T09:17:45.056Z,10.10
2022-11-23T09:20:13.021Z,10.10
2022-11-23T09:22:40.403Z,10.10
2022-11-23T09:25:08.826Z,10.10
2022-11-23T09:27:36.518Z,10.20
2022-11-23T09:30:05.588Z,10.30
2022-11-23T09:32:33.060Z,10.30
2022-11-23T09:35:00.467Z,10.40
2022-11-23T09:37:27.843Z,10.40
2022-11-23T09:39:55.258Z,10.50
2022-11-23T09:42:46.800Z,10.50
2022-11-23T09:45:49.462Z,10.50
2022-11-23T09:48:34.504Z,10.60
2022-11-23T09:51:09.949Z,10.60
2022-11-23T09:54:00.490Z,10.60
2022-11-23T09:56:39.604Z,10.50
2022-11-23T09:59:21.355Z,10.50
2022-11-23T10:01:48.847Z,10.50
2022-11-23T10:04:19.308Z,10.50
2022-11-23T10:06:55.130Z,10.40
2022-11-23T10:09:25.505Z,10.40
2022-11-23T10:12:16.982Z,10.50
2022-11-23T10:15:09.754Z,10.40
2022-11-23T10:17:58.703Z,10.40
2022-11-23T10:20:52.505Z,10.40
2022-11-23T10:23:52.525Z,10.40
2022-11-23T10:26:41.421Z,10.40
2022-11-23T10:29:25.439Z,10.40
2022-11-23T10:31:56.997Z,10.40
2022-11-23T10:34:46.594Z,10.50
2022-11-23T10:37:15.946Z,10.40
2022-11-23T10:39:43.675Z,10.40
2022-11-23T10:42:29.753Z,10.40
2022-11-23T10:44:58.777Z,10.50
2022-11-23T10:47:48.845Z,10.60
2022-11-23T10:50:24.471Z,10.60
2022-11-23T10:52:57.140Z,10.60
2022-11-23T10:55:28.686Z,10.70
2022-11-23T10:57:56.294Z,10.70
2022-11-23T11:00:30.873Z,10.80
2022-11-23T11:02:59.787Z,10.80
2022-11-23T11:08:34.607Z,10.90
2022-11-23T11:11:21.035Z,11.00
2022-11-23T11:13:49.729Z,11.00
2022-11-23T11:16:22.080Z,11.10
2022-11-23T11:18:49.484Z,11.20
2022-11-23T11:21:23.027Z,11.20
2022-11-23T11:24:02.714Z,11.20
2022-11-23T11:26:32.457Z,11.20
2022-11-23T11:29:10.006Z,11.20
2022-11-23T11:31:49.233Z,11.10
2022-11-23T11:34:32.834Z,11.10
2022-11-23T11:37:02.808Z,11.10
2022-11-23T11:39:42.225Z,11.10
2022-11-23T11:42:34.769Z,11.00
2022-11-23T11:45:05.070Z,11.10
2022-11-23T11:47:39.614Z,11.10
2022-11-23T11:50:31.653Z,11.10
2022-11-23T11:53:04.838Z,11.10
2022-11-23T11:55:57.410Z,11.10
2022-11-23T11:58:26.345Z,11.20
2022-11-23T12:01:17.926Z,11.30
2022-11-23T12:03:55.344Z,11.40
2022-11-23T12:06:36.238Z,11.50
2022-11-23T12:09:07.434Z,11.70
2022-11-23T12:11:34.835Z,12.00
2022-11-23T12:14:04.978Z,12.20
2022-11-23T12:17:16.974Z,12.20
2022-11-23T12:20:22.401Z,12.40
2022-11-23T12:23:04.707Z,12.60
2022-11-23T12:25:38.944Z,12.30
2022-11-23T12:28:35.591Z,12.50
2022-11-23T12:31:21.075Z,12.50
2022-11-23T12:34:16.403Z,12.50
2022-11-23T12:37:02.538Z,12.90
2022-11-23T12:39:41.981Z,13.20
2022-11-23T12:42:21.524Z,13.30
2022-11-23T12:45:01.044Z,13.40
2022-11-23T12:47:47.165Z,13.30
2022-11-23T12:50:14.633Z,13.40
2022-11-23T12:53:15.813Z,13.50
2022-11-23T12:55:43.140Z,13.40
2022-11-23T12:58:20.667Z,13.50
2022-11-23T13:01:01.059Z,13.50
2022-11-23T13:04:04.987Z,13.60
2022-11-23T13:07:28.525Z,13.60
2022-11-23T13:09:48.371Z,13.40
2022-11-23T13:12:45.947Z,13.30
2022-11-23T13:15:31.895Z,13.40
2022-11-23T13:18:22.312Z,13.30
2022-11-23T13:21:15.738Z,13.40
2022-11-23T13:23:43.295Z,13.50
2022-11-23T13:26:16.843Z,13.20
2022-11-23T13:28:46.233Z,12.80
2022-11-23T13:31:16.925Z,12.60
2022-11-23T13:33:49.568Z,12.50
2022-11-23T13:37:04.409Z,12.40
2022-11-23T13:39:48.048Z,12.30
2022-11-23T13:42:15.628Z,12.30
2022-11-23T13:44:43.133Z,12.30
2022-11-23T13:47:10.473Z,12.20
2022-11-23T13:49:43.269Z,12.20
2022-11-23T13:52:26.245Z,12.20
2022-11-23T13:55:11.842Z,12.20
2022-11-23T13:57:43.849Z,12.20
2022-11-23T14:00:45.584Z,12.20
2022-11-23T14:03:48.624Z,12.20
2022-11-23T14:06:33.980Z,12.10
2022-11-23T14:09:12.913Z,12.00
2022-11-23T14:11:58.611Z,12.00
2022-11-23T14:14:43.749Z,12.10
2022-11-23T14:17:29.733Z,12.10
2022-11-23T14:20:06.284Z,12.10
2022-11-23T14:22:47.961Z,12.10
2022-11-23T14:25:27.234Z,12.10
2022-11-23T14:28:09.428Z,12.20
2022-11-23T14:31:08.632Z,12.20
2022-11-23T14:33:48.016Z,12.20
2022-11-23T14:36:29.276Z,12.20
2022-11-23T14:39:28.031Z,12.20
2022-11-23T14:42:01.247Z,12.20
2022-11-23T14:44:34.178Z,12.20
2022-11-23T14:47:07.873Z,12.20
2022-11-23T14:49:36.745Z,12.20
2022-11-23T14:52:05.092Z,12.20
2022-11-23T14:54:33.050Z,12.10
2022-11-23T14:57:04.041Z,12.10
2022-11-23T14:59:37.894Z,12.10
2022-11-23T15:02:15.464Z,12.20
2022-11-23T15:05:00.762Z,12.20
2022-11-23T15:07:39.378Z,12.20
2022-11-23T15:10:26.468Z,12.10
2022-11-23T15:12:53.874Z,12.10
2022-11-23T15:15:21.317Z,12.10
2022-11-23T15:17:57.038Z,12.10
2022-11-23T15:20:29.971Z,12.00
2022-11-23T15:27:30.383Z,11.10
2022-11-23T15:30:00.462Z,10.70
2022-11-23T15:32:34.320Z,10.50
2022-11-23T15:35:06.971Z,10.50
2022-11-23T15:37:46.117Z,10.40
2022-11-23T15:40:15.777Z,10.30
2022-11-23T15:42:45.219Z,10.30
2022-11-23T15:45:46.655Z,10.20
2022-11-23T15:48:26.796Z,10.20
2022-11-23T15:50:56.675Z,10.10
2022-11-23T15:53:33.331Z,10.10
2022-11-23T15:56:04.511Z,10.00
2022-11-23T15:58:33.820Z,9.90
2022-11-23T16:01:07.776Z,9.90
2022-11-23T16:03:41.529Z,9.90
2022-11-23T16:06:16.112Z,10.00
2022-11-23T16:08:43.512Z,10.00
2022-11-23T16:11:34.998Z,10.10
2022-11-23T16:14:12.354Z,10.20
2022-11-23T16:16:45.216Z,10.20
2022-11-23T16:19:33.735Z,10.30
2022-11-23T16:22:05.517Z,10.40
2022-11-23T16:24:35.568Z,10.40
2022-11-23T16:27:13.526Z,10.40
2022-11-23T16:29:41.437Z,10.50
2022-11-23T16:32:27.474Z,10.60
2022-11-23T16:34:55.956Z,10.50
2022-11-23T16:37:23.428Z,10.60
2022-11-23T16:39:50.861Z,10.50
2022-11-23T16:42:18.424Z,10.50
2022-11-23T16:44:46.025Z,10.50
2022-11-23T16:47:25.053Z,10.50
2022-11-23T16:49:53.387Z,10.50
2022-11-23T16:52:22.835Z,10.50
2022-11-23T16:54:50.992Z,10.50
2022-11-23T16:57:30.868Z,10.40
2022-11-23T17:00:01.728Z,10.40
2022-11-23T17:02:29.335Z,10.40
2022-11-23T17:04:56.846Z,10.40
2022-11-23T17:07:24.395Z,10.30
2022-11-23T17:09:51.939Z,10.40
2022-11-23T17:12:20.575Z,10.40
2022-11-23T17:14:49.661Z,10.40
2022-11-23T17:17:22.219Z,10.30
2022-11-23T17:19:50.313Z,10.30
2022-11-23T17:22:20.453Z,10.30
2022-11-23T17:24:49.492Z,10.30
2022-11-23T17:27:23.245Z,10.30
2022-11-23T17:29:59.775Z,10.30
2022-11-23T17:32:27.985Z,10.20
2022-11-23T17:34:55.515Z,10.30
2022-11-23T17:37:24.422Z,10.20
2022-11-23T17:39:52.191Z,10.20
2022-11-23T17:42:19.612Z,10.20
2022-11-23T17:44:46.994Z,10.20
2022-11-23T17:47:28.825Z,10.20
2022-11-23T17:49:57.510Z,10.30
2022-11-23T17:52:25.414Z,10.20
2022-11-23T17:59:27.263Z,10.30
2022-11-23T18:01:54.651Z,10.30
2022-11-23T18:04:22.183Z,10.30
2022-11-23T18:06:49.529Z,10.30
2022-11-23T18:09:16.987Z,10.30
2022-11-23T18:11:44.422Z,10.30
2022-11-23T18:14:11.797Z,10.40
2022-11-23T18:16:39.497Z,10.50
2022-11-23T18:19:07.219Z,10.40
2022-11-23T18:21:34.596Z,10.50
2022-11-23T18:24:04.710Z,10.40
2022-11-23T18:26:32.659Z,10.40
2022-11-23T18:29:00.168Z,10.50
2022-11-23T18:31:28.066Z,10.50
2022-11-23T18:33:55.800Z,10.60
2022-11-23T18:36:23.513Z,10.60
2022-11-23T18:38:51.011Z,10.50
2022-11-23T18:41:18.718Z,10.50
2022-11-23T18:43:46.283Z,10.50
2022-11-23T18:46:21.387Z,10.50
2022-11-23T18:48:50.352Z,10.50
2022-11-23T18:51:18.631Z,10.50
2022-11-23T18:53:47.828Z,10.40
2022-11-23T18:56:15.526Z,10.50
2022-11-23T18:58:44.438Z,10.50
2022-11-23T19:01:20.079Z,10.50
2022-11-23T19:03:49.937Z,10.50
2022-11-23T19:06:19.795Z,10.50
2022-11-23T19:08:50.772Z,10.50
2022-11-23T19:11:27.409Z,10.40
2022-11-23T19:13:57.251Z,10.50
2022-11-23T19:16:27.461Z,10.40
2022-11-23T19:19:06.893Z,10.40
2022-11-23T19:21:35.851Z,10.40
2022-11-23T19:24:04.047Z,10.40
2022-11-23T19:26:31.759Z,10.40
2022-11-23T19:28:59.574Z,10.40
2022-11-23T19:31:29.699Z,10.40
2022-11-23T19:34:00.807Z,10.40
2022-11-23T19:36:29.318Z,10.40
2022-11-23T19:38:57.953Z,10.40
2022-11-23T19:41:30.211Z,10.40
2022-11-23T19:43:59.610Z,10.40
2022-11-23T19:46:28.414Z,10.40
2022-11-23T19:48:57.302Z,10.40
2022-11-23T19:51:25.938Z,10.40
2022-11-23T19:53:56.968Z,10.40
2022-11-23T19:56:25.688Z,10.40
2022-11-23T19:58:54.729Z,10.40
2022-11-23T20:01:24.293Z,10.40
2022-11-23T20:03:53.621Z,10.30
2022-11-23T20:06:26.812Z,10.30
2022-11-23T20:09:03.117Z,10.30
2022-11-23T20:11:33.369Z,10.30
2022-11-23T20:14:01.363Z,10.30
2022-11-23T20:16:31.862Z,10.30
2022-11-23T20:19:02.370Z,10.30
2022-11-23T20:21:30.766Z,10.30
2022-11-23T20:24:04.672Z,10.30
2022-11-23T20:26:34.576Z,10.30
2022-11-23T20:29:02.344Z,10.20
2022-11-23T20:31:31.519Z,10.20
2022-11-23T20:33:59.867Z,10.30
2022-11-23T20:36:30.983Z,10.30
2022-11-23T20:39:00.598Z,10.30
2022-11-23T20:41:31.176Z,10.30
2022-11-23T20:44:00.970Z,10.30
2022-11-23T20:49:17.722Z,10.20
2022-11-23T20:51:45.106Z,10.20
2022-11-23T20:54:12.763Z,10.20
2022-11-23T20:56:40.171Z,10.20
2022-11-23T20:59:07.572Z,10.10
2022-11-23T21:01:35.110Z,10.10
2022-11-23T21:04:02.589Z,10.10
2022-11-23T21:06:31.456Z,10.00
2022-11-23T21:09:02.110Z,10.00
2022-11-23T21:11:48.760Z,10.00
2022-11-23T21:14:19.514Z,10.00
2022-11-23T21:16:58.419Z,10.00
2022-11-23T21:19:29.925Z,10.10
2022-11-23T21:21:58.809Z,10.10
2022-11-23T21:24:26.209Z,10.10
2022-11-23T21:26:53.734Z,10.10
2022-11-23T21:29:21.171Z,10.10
2022-11-23T21:31:49.137Z,10.10
2022-11-23T21:34:22.603Z,10.10
2022-11-23T21:36:50.739Z,10.00
2022-11-23T21:39:19.086Z,10.10
2022-11-23T21:41:47.494Z,10.10
2022-11-23T21:44:14.987Z,10.10
2022-11-23T21:46:42.527Z,10.10
2022-11-23T21:49:10.626Z,10.00
2022-11-23T21:51:38.666Z,10.00
2022-11-23T21:54:09.862Z,10.00
2022-11-23T21:56:37.772Z,9.90
2022-11-23T21:59:05.462Z,9.90
2022-11-23T22:01:34.508Z,9.90
2022-11-23T22:04:09.011Z,9.90
2022-11-23T22:06:38.258Z,9.80
2022-11-23T22:09:09.326Z,9.80
2022-11-23T22:11:41.131Z,9.90
2022-11-23T22:14:16.412Z,9.80
2022-11-23T22:16:45.737Z,9.90
2022-11-23T22:19:14.969Z,9.90
2022-11-23T22:21:44.380Z,9.90
2022-11-23T22:24:14.310Z,9.90
2022-11-23T22:26:42.952Z,9.90
2022-11-23T22:29:11.231Z,9.80
2022-11-23T22:31:39.010Z,9.90
2022-11-23T22:34:10.161Z,9.90
2022-11-23T22:36:37.589Z,9.90
2022-11-23T22:39:06.567Z,9.90
2022-11-23T22:41:37.300Z,9.90
2022-11-23T22:44:09.017Z,9.90
2022-11-23T22:46:37.213Z,10.00
2022-11-23T22:49:04.924Z,10.00
2022-11-23T22:51:32.841Z,9.90
2022-11-23T22:54:01.315Z,9.90
2022-11-23T22:56:30.511Z,9.80
2022-11-23T22:58:58.329Z,9.80
2022-11-23T23:01:28.763Z,9.80
2022-11-23T23:03:58.315Z,9.80
2022-11-23T23:06:28.521Z,9.80
2022-11-23T23:08:58.087Z,9.80
2022-11-23T23:11:27.773Z,9.80
2022-11-23T23:13:56.117Z,9.90
2022-11-23T23:16:25.487Z,9.90
2022-11-23T23:18:56.537Z,9.90
2022-11-23T23:21:25.094Z,10.00
2022-11-23T23:23:55.155Z,10.00
2022-11-23T23:26:25.680Z,10.00
2022-11-23T23:28:57.438Z,10.00
2022-11-23T23:31:25.356Z,10.00
2022-11-23T23:33:53.796Z,10.00
2022-11-23T23:36:22.822Z,10.00
2022-11-23T23:38:51.049Z,10.10
2022-11-23T23:41:19.025Z,10.10
2022-11-23T23:43:48.245Z,10.10
2022-11-23T23:46:16.545Z,10.10
2022-11-23T23:48:44.146Z,10.10
2022-11-23T23:51:15.104Z,10.10
2022-11-23T23:53:43.964Z,10.10
2022-11-23T23:56:26.422Z,10.10
2022-11-23T23:58:56.821Z,10.20
